sensor_id;sensor_type;location;lat;lon;timestamp;P1;durP1;ratioP1;P2;durP2;ratioP2
44720;SDS011;30450;52.534;13.398;2022-11-21T00:01:58;27.13;;;16.52;;
44720;SDS011;30450;52.534;13.398;2022-11-21T00:04:24;24.27;;;16.23;;
44720;SDS011;30450;52.534;13.398;2022-11-21T00:06:50;25.55;;;16.77;;
44720;SDS011;30450;52.534;13.398;2022-11-21T00:09:17;23.20;;;15.38;;
44720;SDS011;30450;52.534;13.398;2022-11-21T00:11:43;27.45;;;17.52;;
44720;SDS011;30450;52.534;13.398;2022-11-21T00:14:09;26.05;;;17.88;;
44720;SDS011;30450;52.534;13.398;2022-11-21T00:16:34;26.85;;;16.73;;
44720;SDS011;30450;52.534;13.398;2022-11-21T00:19:00;27.00;;;15.18;;
44720;SDS011;30450;52.534;13.398;2022-11-21T00:21:26;23.60;;;16.40;;
44720;SDS011;30450;52.534;13.398;2022-11-21T00:23:54;23.40;;;16.38;;
44720;SDS011;30450;52.534;13.398;2022-11-21T00:26:20;22.85;;;16.33;;
44720;SDS011;30450;52.534;13.398;2022-11-21T00:28:46;27.67;;;16.65;;
44720;SDS011;30450;52.534;13.398;2022-11-21T00:31:17;23.88;;;14.95;;
44720;SDS011;30450;52.534;13.398;2022-11-21T00:33:43;25.02;;;15.63;;
44720;SDS011;30450;52.534;13.398;2022-11-21T00:36:09;27.13;;;15.05;;
44720;SDS011;30450;52.534;13.398;2022-11-21T00:38:35;27.75;;;15.30;;
44720;SDS011;30450;52.534;13.398;2022-11-21T00:41:00;22.23;;;15.18;;
44720;SDS011;30450;52.534;13.398;2022-11-21T00:43:26;23.90;;;16.67;;
44720;SDS011;30450;52.534;13.398;2022-11-21T00:45:52;23.75;;;15.68;;
44720;SDS011;30450;52.534;13.398;2022-11-21T00:48:18;23.00;;;15.88;;
44720;SDS011;30450;52.534;13.398;2022-11-21T00:50:46;25.08;;;16.85;;
44720;SDS011;30450;52.534;13.398;2022-11-21T00:53:12;25.17;;;15.85;;
44720;SDS011;30450;52.534;13.398;2022-11-21T00:55:38;25.63;;;17.27;;
44720;SDS011;30450;52.534;13.398;2022-11-21T00:58:03;22.63;;;16.27;;
44720;SDS011;30450;52.534;13.398;2022-11-21T01:00:29;26.95;;;16.40;;
44720;SDS011;30450;52.534;13.398;2022-11-21T01:02:55;23.40;;;15.85;;
44720;SDS011;30450;52.534;13.398;2022-11-21T01:05:21;22.63;;;15.65;;
44720;SDS011;30450;52.534;13.398;2022-11-21T01:07:47;25.67;;;17.50;;
44720;SDS011;30450;52.534;13.398;2022-11-21T01:10:12;28.85;;;15.90;;
44720;SDS011;30450;52.534;13.398;2022-11-21T01:12:38;24.02;;;15.77;;
44720;SDS011;30450;52.534;13.398;2022-11-21T01:15:05;25.50;;;17.50;;
44720;SDS011;30450;52.534;13.398;2022-11-21T01:17:31;28.40;;;16.88;;
44720;SDS011;30450;52.534;13.398;2022-11-21T01:19:57;24.25;;;16.58;;
44720;SDS011;30450;52.534;13.398;2022-11-21T01:22:23;24.88;;;16.40;;
44720;SDS011;30450;52.534;13.398;2022-11-21T01:24:49;24.55;;;17.08;;
44720;SDS011;30450;52.534;13.398;2022-11-21T01:27:14;26.77;;;17.08;;
44720;SDS011;30450;52.534;13.398;2022-11-21T01:29:40;25.13;;;16.08;;
44720;SDS011;30450;52.534;13.398;2022-11-21T01:32:06;25.85;;;16.05;;
44720;SDS011;30450;52.534;13.398;2022-11-21T01:34:32;25.52;;;17.15;;
44720;SDS011;30450;52.534;13.398;2022-11-21T01:36:58;23.95;;;16.80;;
44720;SDS011;30450;52.534;13.398;2022-11-21T01:39:23;25.40;;;16.98;;
44720;SDS011;30450;52.534;13.398;2022-11-21T01:41:49;25.08;;;17.80;;
44720;SDS011;30450;52.534;13.398;2022-11-21T01:46:41;23.65;;;16.52;;
44720;SDS011;30450;52.534;13.398;2022-11-21T01:56:38;27.55;;;18.33;;
44720;SDS011;30450;52.534;13.398;2022-11-21T01:59:05;27.67;;;17.77;;
44720;SDS011;30450;52.534;13.398;2022-11-21T02:01:32;23.95;;;17.27;;
44720;SDS011;30450;52.534;13.398;2022-11-21T02:03:59;25.92;;;17.65;;
44720;SDS011;30450;52.534;13.398;2022-11-21T02:06:26;29.20;;;18.70;;
44720;SDS011;30450;52.534;13.398;2022-11-21T02:08:52;29.35;;;17.92;;
44720;SDS011;30450;52.534;13.398;2022-11-21T02:13:44;27.17;;;18.13;;
44720;SDS011;30450;52.534;13.398;2022-11-21T02:16:10;30.92;;;19.38;;
44720;SDS011;30450;52.534;13.398;2022-11-21T02:18:36;25.92;;;18.13;;
44720;SDS011;30450;52.534;13.398;2022-11-21T02:21:05;35.60;;;20.80;;
44720;SDS011;30450;52.534;13.398;2022-11-21T02:23:44;31.88;;;19.92;;
44720;SDS011;30450;52.534;13.398;2022-11-21T02:26:12;30.02;;;20.08;;
44720;SDS011;30450;52.534;13.398;2022-11-21T02:28:38;27.55;;;18.08;;
44720;SDS011;30450;52.534;13.398;2022-11-21T02:31:04;32.17;;;20.20;;
44720;SDS011;30450;52.534;13.398;2022-11-21T02:33:30;28.45;;;19.90;;
44720;SDS011;30450;52.534;13.398;2022-11-21T02:35:56;35.60;;;20.23;;
44720;SDS011;30450;52.534;13.398;2022-11-21T02:38:23;31.27;;;20.48;;
44720;SDS011;30450;52.534;13.398;2022-11-21T02:40:54;31.10;;;19.23;;
44720;SDS011;30450;52.534;13.398;2022-11-21T02:43:32;30.92;;;19.30;;
44720;SDS011;30450;52.534;13.398;2022-11-21T02:46:00;29.02;;;17.90;;
44720;SDS011;30450;52.534;13.398;2022-11-21T02:48:26;30.60;;;18.92;;
44720;SDS011;30450;52.534;13.398;2022-11-21T02:50:52;28.65;;;18.95;;
44720;SDS011;30450;52.534;13.398;2022-11-21T02:53:17;30.67;;;17.85;;
44720;SDS011;30450;52.534;13.398;2022-11-21T02:55:43;30.27;;;18.88;;
44720;SDS011;30450;52.534;13.398;2022-11-21T02:58:10;34.42;;;21.30;;
44720;SDS011;30450;52.534;13.398;2022-11-21T03:00:36;27.60;;;19.13;;
44720;SDS011;30450;52.534;13.398;2022-11-21T03:03:02;27.40;;;17.83;;
44720;SDS011;30450;52.534;13.398;2022-11-21T03:05:28;28.67;;;18.15;;
44720;SDS011;30450;52.534;13.398;2022-11-21T03:07:54;28.98;;;17.35;;
44720;SDS011;30450;52.534;13.398;2022-11-21T03:10:19;28.70;;;17.90;;
44720;SDS011;30450;52.534;13.398;2022-11-21T03:12:45;27.13;;;16.52;;
44720;SDS011;30450;52.534;13.398;2022-11-21T03:15:12;28.67;;;18.85;;
44720;SDS011;30450;52.534;13.398;2022-11-21T03:17:38;29.55;;;18.17;;
44720;SDS011;30450;52.534;13.398;2022-11-21T03:20:05;25.98;;;17.50;;
44720;SDS011;30450;52.534;13.398;2022-11-21T03:22:31;27.75;;;17.67;;
44720;SDS011;30450;52.534;13.398;2022-11-21T03:24:57;28.67;;;18.15;;
44720;SDS011;30450;52.534;13.398;2022-11-21T03:27:22;27.40;;;17.45;;
44720;SDS011;30450;52.534;13.398;2022-11-21T03:29:48;24.73;;;16.58;;
44720;SDS011;30450;52.534;13.398;2022-11-21T03:32:14;27.20;;;17.50;;
44720;SDS011;30450;52.534;13.398;2022-11-21T03:34:40;27.13;;;17.15;;
44720;SDS011;30450;52.534;13.398;2022-11-21T03:37:06;29.27;;;17.92;;
44720;SDS011;30450;52.534;13.398;2022-11-21T03:39:32;28.63;;;18.92;;
44720;SDS011;30450;52.534;13.398;2022-11-21T03:41:57;28.58;;;18.67;;
44720;SDS011;30450;52.534;13.398;2022-11-21T03:44:23;29.02;;;18.35;;
44720;SDS011;30450;52.534;13.398;2022-11-21T03:46:50;30.67;;;19.85;;
44720;SDS011;30450;52.534;13.398;2022-11-21T03:49:16;27.70;;;18.25;;
44720;SDS011;30450;52.534;13.398;2022-11-21T03:51:42;28.20;;;18.45;;
44720;SDS011;30450;52.534;13.398;2022-11-21T03:54:08;23.95;;;17.25;;
44720;SDS011;30450;52.534;13.398;2022-11-21T03:56:34;27.40;;;17.67;;
44720;SDS011;30450;52.534;13.398;2022-11-21T03:59:00;28.85;;;18.75;;
44720;SDS011;30450;52.534;13.398;2022-11-21T04:01:26;27.88;;;17.63;;
44720;SDS011;30450;52.534;13.398;2022-11-21T04:03:52;26.90;;;17.50;;
44720;SDS011;30450;52.534;13.398;2022-11-21T04:06:18;25.60;;;16.90;;
44720;SDS011;30450;52.534;13.398;2022-11-21T04:08:45;27.33;;;18.45;;
44720;SDS011;30450;52.534;13.398;2022-11-21T04:11:11;30.70;;;17.67;;
44720;SDS011;30450;52.534;13.398;2022-11-21T04:13:37;24.15;;;16.65;;
44720;SDS011;30450;52.534;13.398;2022-11-21T04:16:03;25.40;;;17.95;;
44720;SDS011;30450;52.534;13.398;2022-11-21T04:18:29;25.15;;;16.90;;
44720;SDS011;30450;52.534;13.398;2022-11-21T04:20:55;27.65;;;18.70;;
44720;SDS011;30450;52.534;13.398;2022-11-21T04:23:22;29.00;;;17.98;;
44720;SDS011;30450;52.534;13.398;2022-11-21T04:25:47;25.90;;;17.48;;
44720;SDS011;30450;52.534;13.398;2022-11-21T04:28:13;26.63;;;18.00;;
44720;SDS011;30450;52.534;13.398;2022-11-21T04:30:39;29.13;;;18.40;;
44720;SDS011;30450;52.534;13.398;2022-11-21T04:33:05;26.48;;;18.05;;
44720;SDS011;30450;52.534;13.398;2022-11-21T04:35:31;25.83;;;17.05;;
44720;SDS011;30450;52.534;13.398;2022-11-21T04:37:57;28.45;;;19.10;;
44720;SDS011;30450;52.534;13.398;2022-11-21T04:40:23;27.55;;;19.13;;
44720;SDS011;30450;52.534;13.398;2022-11-21T04:42:48;23.65;;;15.93;;
44720;SDS011;30450;52.534;13.398;2022-11-21T04:45:15;35.05;;;20.98;;
44720;SDS011;30450;52.534;13.398;2022-11-21T04:47:42;32.08;;;18.27;;
44720;SDS011;30450;52.534;13.398;2022-11-21T04:50:09;29.77;;;19.80;;
44720;SDS011;30450;52.534;13.398;2022-11-21T04:52:35;25.63;;;17.48;;
44720;SDS011;30450;52.534;13.398;2022-11-21T04:55:01;25.70;;;17.20;;
44720;SDS011;30450;52.534;13.398;2022-11-21T04:57:27;25.40;;;18.05;;
44720;SDS011;30450;52.534;13.398;2022-11-21T04:59:53;32.67;;;20.00;;
44720;SDS011;30450;52.534;13.398;2022-11-21T05:02:19;29.58;;;19.38;;
44720;SDS011;30450;52.534;13.398;2022-11-21T05:04:46;27.60;;;18.70;;
44720;SDS011;30450;52.534;13.398;2022-11-21T05:07:11;29.00;;;18.50;;
44720;SDS011;30450;52.534;13.398;2022-11-21T05:09:37;27.60;;;18.73;;
44720;SDS011;30450;52.534;13.398;2022-11-21T05:12:03;27.33;;;18.85;;
44720;SDS011;30450;52.534;13.398;2022-11-21T05:14:47;29.83;;;19.50;;
44720;SDS011;30450;52.534;13.398;2022-11-21T05:17:13;28.27;;;18.90;;
44720;SDS011;30450;52.534;13.398;2022-11-21T05:19:39;30.42;;;19.83;;
44720;SDS011;30450;52.534;13.398;2022-11-21T05:22:05;29.27;;;19.33;;
44720;SDS011;30450;52.534;13.398;2022-11-21T05:24:30;29.48;;;18.85;;
44720;SDS011;30450;52.534;13.398;2022-11-21T05:26:56;29.55;;;19.90;;
44720;SDS011;30450;52.534;13.398;2022-11-21T05:29:22;29.73;;;19.20;;
44720;SDS011;30450;52.534;13.398;2022-11-21T05:31:48;30.52;;;20.17;;
44720;SDS011;30450;52.534;13.398;2022-11-21T05:34:14;28.45;;;18.17;;
44720;SDS011;30450;52.534;13.398;2022-11-21T05:36:40;28.40;;;19.65;;
44720;SDS011;30450;52.534;13.398;2022-11-21T05:39:05;26.35;;;19.48;;
44720;SDS011;30450;52.534;13.398;2022-11-21T05:41:31;30.52;;;19.60;;
44720;SDS011;30450;52.534;13.398;2022-11-21T05:43:57;30.08;;;20.77;;
44720;SDS011;30450;52.534;13.398;2022-11-21T05:46:23;26.80;;;18.70;;
44720;SDS011;30450;52.534;13.398;2022-11-21T05:48:50;30.92;;;20.27;;
44720;SDS011;30450;52.534;13.398;2022-11-21T05:51:17;28.48;;;19.52;;
44720;SDS011;30450;52.534;13.398;2022-11-21T05:53:43;31.55;;;20.23;;
44720;SDS011;30450;52.534;13.398;2022-11-21T05:56:10;32.17;;;21.00;;
44720;SDS011;30450;52.534;13.398;2022-11-21T05:58:36;27.63;;;20.20;;
44720;SDS011;30450;52.534;13.398;2022-11-21T06:01:03;26.17;;;18.05;;
44720;SDS011;30450;52.534;13.398;2022-11-21T06:03:30;27.20;;;17.90;;
44720;SDS011;30450;52.534;13.398;2022-11-21T06:06:00;30.30;;;19.63;;
44720;SDS011;30450;52.534;13.398;2022-11-21T06:08:27;28.55;;;18.08;;
44720;SDS011;30450;52.534;13.398;2022-11-21T06:10:53;27.23;;;19.63;;
44720;SDS011;30450;52.534;13.398;2022-11-21T06:13:19;28.10;;;19.02;;
44720;SDS011;30450;52.534;13.398;2022-11-21T06:18:14;30.30;;;19.58;;
44720;SDS011;30450;52.534;13.398;2022-11-21T06:20:40;28.73;;;19.17;;
44720;SDS011;30450;52.534;13.398;2022-11-21T06:23:05;27.88;;;19.58;;
44720;SDS011;30450;52.534;13.398;2022-11-21T06:25:31;28.70;;;20.15;;
44720;SDS011;30450;52.534;13.398;2022-11-21T06:28:00;27.25;;;18.05;;
44720;SDS011;30450;52.534;13.398;2022-11-21T06:30:26;27.02;;;18.80;;
44720;SDS011;30450;52.534;13.398;2022-11-21T06:32:52;27.92;;;17.95;;
44720;SDS011;30450;52.534;13.398;2022-11-21T06:35:18;28.73;;;18.65;;
44720;SDS011;30450;52.534;13.398;2022-11-21T06:37:44;28.42;;;18.13;;
44720;SDS011;30450;52.534;13.398;2022-11-21T06:40:10;28.52;;;19.85;;
44720;SDS011;30450;52.534;13.398;2022-11-21T06:42:36;32.05;;;18.58;;
44720;SDS011;30450;52.534;13.398;2022-11-21T06:45:02;29.45;;;20.08;;
44720;SDS011;30450;52.534;13.398;2022-11-21T06:47:32;28.42;;;18.45;;
44720;SDS011;30450;52.534;13.398;2022-11-21T06:49:57;29.67;;;19.17;;
44720;SDS011;30450;52.534;13.398;2022-11-21T06:52:23;28.35;;;19.10;;
44720;SDS011;30450;52.534;13.398;2022-11-21T06:54:49;38.72;;;24.20;;
44720;SDS011;30450;52.534;13.398;2022-11-21T06:57:15;126.93;;;84.45;;
44720;SDS011;30450;52.534;13.398;2022-11-21T06:59:41;85.50;;;57.67;;
44720;SDS011;30450;52.534;13.398;2022-11-21T07:02:10;68.05;;;47.00;;
44720;SDS011;30450;52.534;13.398;2022-11-21T07:04:36;49.35;;;34.40;;
44720;SDS011;30450;52.534;13.398;2022-11-21T07:07:02;34.55;;;23.55;;
44720;SDS011;30450;52.534;13.398;2022-11-21T07:09:28;32.85;;;21.98;;
44720;SDS011;30450;52.534;13.398;2022-11-21T07:11:53;31.25;;;21.05;;
44720;SDS011;30450;52.534;13.398;2022-11-21T07:14:19;27.17;;;19.30;;
44720;SDS011;30450;52.534;13.398;2022-11-21T07:16:45;33.13;;;20.90;;
44720;SDS011;30450;52.534;13.398;2022-11-21T07:19:11;30.45;;;21.13;;
44720;SDS011;30450;52.534;13.398;2022-11-21T07:21:36;32.20;;;20.65;;
44720;SDS011;30450;52.534;13.398;2022-11-21T07:24:02;30.52;;;21.20;;
44720;SDS011;30450;52.534;13.398;2022-11-21T07:26:28;29.27;;;20.30;;
44720;SDS011;30450;52.534;13.398;2022-11-21T07:28:53;28.45;;;20.75;;
44720;SDS011;30450;52.534;13.398;2022-11-21T07:31:20;34.72;;;20.40;;
44720;SDS011;30450;52.534;13.398;2022-11-21T07:33:45;34.40;;;20.45;;
44720;SDS011;30450;52.534;13.398;2022-11-21T07:36:12;32.03;;;20.45;;
44720;SDS011;30450;52.534;13.398;2022-11-21T07:38:38;32.15;;;21.25;;
44720;SDS011;30450;52.534;13.398;2022-11-21T07:41:05;39.55;;;22.85;;
44720;SDS011;30450;52.534;13.398;2022-11-21T07:43:31;33.90;;;21.10;;
44720;SDS011;30450;52.534;13.398;2022-11-21T07:45:57;34.95;;;23.67;;
44720;SDS011;30450;52.534;13.398;2022-11-21T07:48:23;34.63;;;22.83;;
44720;SDS011;30450;52.534;13.398;2022-11-21T07:50:48;33.90;;;23.67;;
44720;SDS011;30450;52.534;13.398;2022-11-21T07:53:14;36.28;;;24.02;;
44720;SDS011;30450;52.534;13.398;2022-11-21T07:55:40;38.38;;;24.88;;
44720;SDS011;30450;52.534;13.398;2022-11-21T07:58:08;40.40;;;25.20;;
44720;SDS011;30450;52.534;13.398;2022-11-21T08:00:37;36.72;;;24.40;;
44720;SDS011;30450;52.534;13.398;2022-11-21T08:03:03;36.00;;;23.60;;
44720;SDS011;30450;52.534;13.398;2022-11-21T08:05:30;38.90;;;25.67;;
44720;SDS011;30450;52.534;13.398;2022-11-21T08:07:55;44.97;;;27.40;;
44720;SDS011;30450;52.534;13.398;2022-11-21T08:10:21;38.10;;;25.20;;
44720;SDS011;30450;52.534;13.398;2022-11-21T08:12:47;41.42;;;24.75;;
44720;SDS011;30450;52.534;13.398;2022-11-21T08:15:13;45.17;;;27.27;;
44720;SDS011;30450;52.534;13.398;2022-11-21T08:17:39;43.85;;;27.60;;
44720;SDS011;30450;52.534;13.398;2022-11-21T08:20:05;40.00;;;26.23;;
44720;SDS011;30450;52.534;13.398;2022-11-21T08:22:31;39.80;;;27.58;;
44720;SDS011;30450;52.534;13.398;2022-11-21T08:24:57;40.00;;;24.90;;
44720;SDS011;30450;52.534;13.398;2022-11-21T08:27:23;45.58;;;26.10;;
44720;SDS011;30450;52.534;13.398;2022-11-21T08:29:49;41.33;;;27.40;;
44720;SDS011;30450;52.534;13.398;2022-11-21T08:32:15;44.53;;;27.88;;
44720;SDS011;30450;52.534;13.398;2022-11-21T08:34:41;38.38;;;24.00;;
44720;SDS011;30450;52.534;13.398;2022-11-21T08:37:07;35.20;;;23.35;;
44720;SDS011;30450;52.534;13.398;2022-11-21T08:39:33;36.25;;;24.73;;
44720;SDS011;30450;52.534;13.398;2022-11-21T08:41:59;38.88;;;24.60;;
44720;SDS011;30450;52.534;13.398;2022-11-21T08:44:28;44.40;;;25.52;;
44720;SDS011;30450;52.534;13.398;2022-11-21T08:46:54;40.00;;;25.05;;
44720;SDS011;30450;52.534;13.398;2022-11-21T08:49:20;39.55;;;25.33;;
44720;SDS011;30450;52.534;13.398;2022-11-21T08:51:47;37.47;;;23.10;;
44720;SDS011;30450;52.534;13.398;2022-11-21T08:54:16;38.78;;;23.05;;
44720;SDS011;30450;52.534;13.398;2022-11-21T08:56:42;39.33;;;22.48;;
44720;SDS011;30450;52.534;13.398;2022-11-21T08:59:08;36.05;;;22.75;;
44720;SDS011;30450;52.534;13.398;2022-11-21T09:01:34;41.03;;;23.95;;
44720;SDS011;30450;52.534;13.398;2022-11-21T09:04:00;39.53;;;22.35;;
44720;SDS011;30450;52.534;13.398;2022-11-21T09:06:26;40.63;;;23.42;;
44720;SDS011;30450;52.534;13.398;2022-11-21T09:08:52;46.25;;;25.73;;
44720;SDS011;30450;52.534;13.398;2022-11-21T09:11:18;45.55;;;22.50;;
44720;SDS011;30450;52.534;13.398;2022-11-21T09:13:43;39.15;;;23.33;;
44720;SDS011;30450;52.534;13.398;2022-11-21T09:16:29;41.55;;;22.52;;
44720;SDS011;30450;52.534;13.398;2022-11-21T09:19:14;38.08;;;22.20;;
44720;SDS011;30450;52.534;13.398;2022-11-21T09:21:40;44.40;;;25.75;;
44720;SDS011;30450;52.534;13.398;2022-11-21T09:24:05;36.30;;;21.95;;
44720;SDS011;30450;52.534;13.398;2022-11-21T09:26:31;34.13;;;19.98;;
44720;SDS011;30450;52.534;13.398;2022-11-21T09:28:57;44.58;;;24.23;;
44720;SDS011;30450;52.534;13.398;2022-11-21T09:31:24;38.75;;;22.38;;
44720;SDS011;30450;52.534;13.398;2022-11-21T09:33:50;36.08;;;21.95;;
44720;SDS011;30450;52.534;13.398;2022-11-21T09:36:16;42.00;;;22.00;;
44720;SDS011;30450;52.534;13.398;2022-11-21T09:38:42;37.90;;;22.25;;
44720;SDS011;30450;52.534;13.398;2022-11-21T09:46:55;39.97;;;22.65;;
44720;SDS011;30450;52.534;13.398;2022-11-21T09:49:23;42.75;;;23.13;;
44720;SDS011;30450;52.534;13.398;2022-11-21T09:51:49;41.35;;;22.92;;
44720;SDS011;30450;52.534;13.398;2022-11-21T09:56:42;33.08;;;20.45;;
44720;SDS011;30450;52.534;13.398;2022-11-21T10:01:43;35.25;;;19.23;;
44720;SDS011;30450;52.534;13.398;2022-11-21T10:04:09;36.45;;;20.35;;
44720;SDS011;30450;52.534;13.398;2022-11-21T10:06:43;36.78;;;22.48;;
44720;SDS011;30450;52.534;13.398;2022-11-21T10:25:19;35.10;;;19.67;;
44720;SDS011;30450;52.534;13.398;2022-11-21T10:28:01;32.40;;;19.73;;
44720;SDS011;30450;52.534;13.398;2022-11-21T10:30:29;29.52;;;18.95;;
44720;SDS011;30450;52.534;13.398;2022-11-21T10:32:56;34.38;;;19.55;;
44720;SDS011;30450;52.534;13.398;2022-11-21T10:35:34;30.83;;;21.00;;
44720;SDS011;30450;52.534;13.398;2022-11-21T10:38:02;35.88;;;21.88;;
44720;SDS011;30450;52.534;13.398;2022-11-21T10:40:34;34.28;;;20.25;;
44720;SDS011;30450;52.534;13.398;2022-11-21T10:43:05;34.95;;;20.13;;
44720;SDS011;30450;52.534;13.398;2022-11-21T10:45:51;32.05;;;19.50;;
44720;SDS011;30450;52.534;13.398;2022-11-21T10:48:17;30.63;;;17.40;;
44720;SDS011;30450;52.534;13.398;2022-11-21T10:53:16;28.90;;;16.35;;
44720;SDS011;30450;52.534;13.398;2022-11-21T10:56:14;25.08;;;14.13;;
44720;SDS011;30450;52.534;13.398;2022-11-21T10:58:42;18.33;;;12.40;;
44720;SDS011;30450;52.534;13.398;2022-11-21T11:06:34;19.95;;;12.20;;
44720;SDS011;30450;52.534;13.398;2022-11-21T11:09:00;24.67;;;13.63;;
44720;SDS011;30450;52.534;13.398;2022-11-21T11:11:25;20.15;;;12.82;;
44720;SDS011;30450;52.534;13.398;2022-11-21T11:13:55;21.55;;;14.20;;
44720;SDS011;30450;52.534;13.398;2022-11-21T11:16:22;23.75;;;14.32;;
44720;SDS011;30450;52.534;13.398;2022-11-21T11:18:56;26.95;;;16.38;;
44720;SDS011;30450;52.534;13.398;2022-11-21T11:29:20;25.80;;;16.33;;
44720;SDS011;30450;52.534;13.398;2022-11-21T11:31:51;29.08;;;17.15;;
44720;SDS011;30450;52.534;13.398;2022-11-21T11:34:18;23.88;;;15.73;;
44720;SDS011;30450;52.534;13.398;2022-11-21T11:37:29;30.75;;;17.77;;
44720;SDS011;30450;52.534;13.398;2022-11-21T11:58:52;24.48;;;16.75;;
44720;SDS011;30450;52.534;13.398;2022-11-21T12:00:59;24.75;;;16.13;;
44720;SDS011;30450;52.534;13.398;2022-11-21T12:06:02;24.60;;;17.00;;
44720;SDS011;30450;52.534;13.398;2022-11-21T12:08:33;27.88;;;16.80;;
44720;SDS011;30450;52.534;13.398;2022-11-21T12:11:05;28.23;;;17.63;;
44720;SDS011;30450;52.534;13.398;2022-11-21T12:13:53;27.30;;;17.85;;
44720;SDS011;30450;52.534;13.398;2022-11-21T12:16:20;30.05;;;18.10;;
44720;SDS011;30450;52.534;13.398;2022-11-21T12:18:59;27.17;;;17.52;;
44720;SDS011;30450;52.534;13.398;2022-11-21T12:21:26;30.13;;;19.92;;
44720;SDS011;30450;52.534;13.398;2022-11-21T12:23:53;29.40;;;20.13;;
44720;SDS011;30450;52.534;13.398;2022-11-21T12:26:23;30.83;;;18.85;;
44720;SDS011;30450;52.534;13.398;2022-11-21T12:31:26;28.08;;;19.63;;
44720;SDS011;30450;52.534;13.398;2022-11-21T12:39:11;20.33;;;13.35;;
44720;SDS011;30450;52.534;13.398;2022-11-21T12:47:05;16.02;;;12.15;;
44720;SDS011;30450;52.534;13.398;2022-11-21T12:49:37;16.05;;;12.05;;
44720;SDS011;30450;52.534;13.398;2022-11-21T12:52:36;15.60;;;10.90;;
44720;SDS011;30450;52.534;13.398;2022-11-21T12:55:39;18.45;;;12.30;;
44720;SDS011;30450;52.534;13.398;2022-11-21T12:58:25;15.23;;;11.07;;
44720;SDS011;30450;52.534;13.398;2022-11-21T13:03:29;17.02;;;12.63;;
44720;SDS011;30450;52.534;13.398;2022-11-21T13:05:58;16.52;;;11.98;;
44720;SDS011;30450;52.534;13.398;2022-11-21T13:08:26;16.75;;;11.80;;
44720;SDS011;30450;52.534;13.398;2022-11-21T13:13:41;15.35;;;11.90;;
44720;SDS011;30450;52.534;13.398;2022-11-21T13:16:09;15.20;;;11.02;;
44720;SDS011;30450;52.534;13.398;2022-11-21T13:18:40;18.27;;;12.38;;
44720;SDS011;30450;52.534;13.398;2022-11-21T13:23:34;16.63;;;11.07;;
44720;SDS011;30450;52.534;13.398;2022-11-21T13:26:00;16.08;;;10.85;;
44720;SDS011;30450;52.534;13.398;2022-11-21T13:28:29;14.00;;;11.02;;
44720;SDS011;30450;52.534;13.398;2022-11-21T13:30:55;20.88;;;12.10;;
44720;SDS011;30450;52.534;13.398;2022-11-21T13:33:44;17.58;;;11.82;;
44720;SDS011;30450;52.534;13.398;2022-11-21T13:39:22;17.85;;;12.10;;
44720;SDS011;30450;52.534;13.398;2022-11-21T13:49:26;23.45;;;11.50;;
44720;SDS011;30450;52.534;13.398;2022-11-21T13:51:55;20.20;;;12.23;;
44720;SDS011;30450;52.534;13.398;2022-11-21T13:54:36;20.85;;;12.65;;
44720;SDS011;30450;52.534;13.398;2022-11-21T14:02:24;19.70;;;12.85;;
44720;SDS011;30450;52.534;13.398;2022-11-21T14:07:38;20.08;;;11.93;;
44720;SDS011;30450;52.534;13.398;2022-11-21T14:12:48;19.90;;;12.90;;
44720;SDS011;30450;52.534;13.398;2022-11-21T14:15:18;18.75;;;13.60;;
44720;SDS011;30450;52.534;13.398;2022-11-21T14:17:45;25.48;;;15.40;;
44720;SDS011;30450;52.534;13.398;2022-11-21T14:20:20;26.05;;;16.20;;
44720;SDS011;30450;52.534;13.398;2022-11-21T14:28:05;20.58;;;14.75;;
44720;SDS011;30450;52.534;13.398;2022-11-21T14:30:35;24.30;;;15.83;;
44720;SDS011;30450;52.534;13.398;2022-11-21T14:35:50;24.63;;;16.23;;
44720;SDS011;30450;52.534;13.398;2022-11-21T14:38:16;24.65;;;15.38;;
44720;SDS011;30450;52.534;13.398;2022-11-21T14:40:43;20.75;;;14.32;;
44720;SDS011;30450;52.534;13.398;2022-11-21T14:45:54;23.02;;;14.25;;
44720;SDS011;30450;52.534;13.398;2022-11-21T14:48:29;24.52;;;16.45;;
44720;SDS011;30450;52.534;13.398;2022-11-21T14:50:55;22.38;;;15.32;;
44720;SDS011;30450;52.534;13.398;2022-11-21T14:53:22;23.88;;;15.95;;
44720;SDS011;30450;52.534;13.398;2022-11-21T14:55:48;25.10;;;15.95;;
44720;SDS011;30450;52.534;13.398;2022-11-21T14:58:15;30.25;;;16.77;;
44720;SDS011;30450;52.534;13.398;2022-11-21T15:00:59;27.00;;;17.00;;
44720;SDS011;30450;52.534;13.398;2022-11-21T15:03:26;26.33;;;17.75;;
44720;SDS011;30450;52.534;13.398;2022-11-21T15:05:58;24.70;;;17.05;;
44720;SDS011;30450;52.534;13.398;2022-11-21T15:08:24;24.17;;;17.15;;
44720;SDS011;30450;52.534;13.398;2022-11-21T15:10:50;24.17;;;16.90;;
44720;SDS011;30450;52.534;13.398;2022-11-21T15:13:16;28.85;;;17.77;;
44720;SDS011;30450;52.534;13.398;2022-11-21T15:15:46;23.73;;;16.85;;
44720;SDS011;30450;52.534;13.398;2022-11-21T15:18:21;25.00;;;19.08;;
44720;SDS011;30450;52.534;13.398;2022-11-21T15:20:47;26.77;;;18.48;;
44720;SDS011;30450;52.534;13.398;2022-11-21T15:23:29;23.27;;;17.10;;
44720;SDS011;30450;52.534;13.398;2022-11-21T15:25:55;25.75;;;17.73;;
44720;SDS011;30450;52.534;13.398;2022-11-21T15:28:22;24.08;;;17.17;;
44720;SDS011;30450;52.534;13.398;2022-11-21T15:30:48;24.33;;;16.17;;
44720;SDS011;30450;52.534;13.398;2022-11-21T15:33:52;25.17;;;17.10;;
44720;SDS011;30450;52.534;13.398;2022-11-21T15:36:18;26.08;;;19.17;;
44720;SDS011;30450;52.534;13.398;2022-11-21T15:39:05;24.80;;;18.52;;
44720;SDS011;30450;52.534;13.398;2022-11-21T15:41:30;24.42;;;17.80;;
44720;SDS011;30450;52.534;13.398;2022-11-21T15:46:26;23.50;;;17.85;;
44720;SDS011;30450;52.534;13.398;2022-11-21T15:48:59;23.42;;;16.80;;
44720;SDS011;30450;52.534;13.398;2022-11-21T15:51:37;29.38;;;19.33;;
44720;SDS011;30450;52.534;13.398;2022-11-21T15:54:04;26.48;;;18.10;;
44720;SDS011;30450;52.534;13.398;2022-11-21T15:56:30;28.55;;;18.30;;
44720;SDS011;30450;52.534;13.398;2022-11-21T15:58:56;26.58;;;19.30;;
44720;SDS011;30450;52.534;13.398;2022-11-21T16:01:23;23.65;;;17.95;;
44720;SDS011;30450;52.534;13.398;2022-11-21T16:03:52;25.40;;;18.60;;
44720;SDS011;30450;52.534;13.398;2022-11-21T16:06:18;30.42;;;21.67;;
44720;SDS011;30450;52.534;13.398;2022-11-21T16:08:45;31.02;;;19.95;;
44720;SDS011;30450;52.534;13.398;2022-11-21T16:11:16;27.73;;;18.98;;
44720;SDS011;30450;52.534;13.398;2022-11-21T16:13:42;30.98;;;21.63;;
44720;SDS011;30450;52.534;13.398;2022-11-21T16:16:12;31.17;;;21.60;;
44720;SDS011;30450;52.534;13.398;2022-11-21T16:18:38;29.33;;;21.48;;
44720;SDS011;30450;52.534;13.398;2022-11-21T16:21:07;26.35;;;17.52;;
44720;SDS011;30450;52.534;13.398;2022-11-21T16:23:33;23.20;;;17.67;;
44720;SDS011;30450;52.534;13.398;2022-11-21T16:25:59;26.08;;;16.98;;
44720;SDS011;30450;52.534;13.398;2022-11-21T16:28:25;23.20;;;17.17;;